sensor_id;sensor_type;location;lat;lon;timestamp;P1;P2;P0
44350;PMS5003;62766;62.622;17.912;2022-10-31T00:00:24;7;7;
44350;PMS5003;62766;62.622;17.912;2022-10-31T00:02:52;6;5;
44350;PMS5003;62766;62.622;17.912;2022-10-31T00:05:21;3;3;
44350;PMS5003;62766;62.622;17.912;2022-10-31T00:07:51;7;6;
44350;PMS5003;62766;62.622;17.912;2022-10-31T00:10:20;4;3;
44350;PMS5003;62766;62.622;17.912;2022-10-31T00:12:48;3;3;
44350;PMS5003;62766;62.622;17.912;2022-10-31T00:15:17;4;3;
44350;PMS5003;62766;62.622;17.912;2022-10-31T00:17:45;2;2;
44350;PMS5003;62766;62.622;17.912;2022-10-31T00:20:14;4;3;
44350;PMS5003;62766;62.622;17.912;2022-10-31T00:22:42;5;2;
44350;PMS5003;62766;62.622;17.912;2022-10-31T00:25:10;5;1;
44350;PMS5003;62766;62.622;17.912;2022-10-31T00:27:39;4;4;
44350;PMS5003;62766;62.622;17.912;2022-10-31T00:30:08;2;2;
44350;PMS5003;62766;62.622;17.912;2022-10-31T00:32:38;4;4;
44350;PMS5003;62766;62.622;17.912;2022-10-31T00:35:06;3;3;
44350;PMS5003;62766;62.622;17.912;2022-10-31T00:37:35;5;4;
44350;PMS5003;62766;62.622;17.912;2022-10-31T00:40:05;4;3;
44350;PMS5003;62766;62.622;17.912;2022-10-31T00:42:36;3;3;
44350;PMS5003;62766;62.622;17.912;2022-10-31T00:45:05;3;3;
44350;PMS5003;62766;62.622;17.912;2022-10-31T00:47:36;3;3;
44350;PMS5003;62766;62.622;17.912;2022-10-31T00:50:06;2;2;
44350;PMS5003;62766;62.622;17.912;2022-10-31T00:52:36;6;4;
44350;PMS5003;62766;62.622;17.912;2022-10-31T00:55:04;3;2;
44350;PMS5003;62766;62.622;17.912;2022-10-31T00:57:33;5;5;
44350;PMS5003;62766;62.622;17.912;2022-10-31T01:00:04;5;3;
44350;PMS5003;62766;62.622;17.912;2022-10-31T01:02:34;3;3;
44350;PMS5003;62766;62.622;17.912;2022-10-31T01:05:04;5;3;
44350;PMS5003;62766;62.622;17.912;2022-10-31T01:07:35;4;4;
44350;PMS5003;62766;62.622;17.912;2022-10-31T01:10:04;3;3;
44350;PMS5003;62766;62.622;17.912;2022-10-31T01:12:35;5;3;
44350;PMS5003;62766;62.622;17.912;2022-10-31T01:15:05;3;3;
44350;PMS5003;62766;62.622;17.912;2022-10-31T01:17:35;3;3;
44350;PMS5003;62766;62.622;17.912;2022-10-31T01:20:06;3;1;
44350;PMS5003;62766;62.622;17.912;2022-10-31T01:22:37;2;2;
44350;PMS5003;62766;62.622;17.912;2022-10-31T01:25:06;2;2;
44350;PMS5003;62766;62.622;17.912;2022-10-31T01:27:36;1;1;
44350;PMS5003;62766;62.622;17.912;2022-10-31T01:30:06;1;1;
44350;PMS5003;62766;62.622;17.912;2022-10-31T01:32:36;1;1;
44350;PMS5003;62766;62.622;17.912;2022-10-31T01:35:04;0;0;
44350;PMS5003;62766;62.622;17.912;2022-10-31T01:37:33;3;1;
44350;PMS5003;62766;62.622;17.912;2022-10-31T01:40:01;1;1;
44350;PMS5003;62766;62.622;17.912;2022-10-31T01:42:30;1;1;
44350;PMS5003;62766;62.622;17.912;2022-10-31T01:44:59;3;2;
44350;PMS5003;62766;62.622;17.912;2022-10-31T01:47:32;2;2;
44350;PMS5003;62766;62.622;17.912;2022-10-31T01:50:05;3;3;
44350;PMS5003;62766;62.622;17.912;2022-10-31T01:52:40;14;14;
44350;PMS5003;62766;62.622;17.912;2022-10-31T01:55:13;14;10;
44350;PMS5003;62766;62.622;17.912;2022-10-31T01:57:48;16;12;
44350;PMS5003;62766;62.622;17.912;2022-10-31T02:00:21;8;5;
44350;PMS5003;62766;62.622;17.912;2022-10-31T02:02:50;5;5;
44350;PMS5003;62766;62.622;17.912;2022-10-31T02:05:21;8;6;
44350;PMS5003;62766;62.622;17.912;2022-10-31T02:07:55;6;5;
44350;PMS5003;62766;62.622;17.912;2022-10-31T02:10:29;7;5;
44350;PMS5003;62766;62.622;17.912;2022-10-31T02:13:01;3;3;
44350;PMS5003;62766;62.622;17.912;2022-10-31T02:15:32;3;3;
44350;PMS5003;62766;62.622;17.912;2022-10-31T02:18:03;6;5;
44350;PMS5003;62766;62.622;17.912;2022-10-31T02:20:33;2;2;
44350;PMS5003;62766;62.622;17.912;2022-10-31T02:23:19;3;3;
44350;PMS5003;62766;62.622;17.912;2022-10-31T02:28:00;4;3;
44350;PMS5003;62766;62.622;17.912;2022-10-31T02:30:49;2;2;
44350;PMS5003;62766;62.622;17.912;2022-10-31T02:33:28;3;3;
44350;PMS5003;62766;62.622;17.912;2022-10-31T02:36:04;5;3;
44350;PMS5003;62766;62.622;17.912;2022-10-31T02:38:42;3;3;
44350;PMS5003;62766;62.622;17.912;2022-10-31T02:41:21;2;2;
44350;PMS5003;62766;62.622;17.912;2022-10-31T02:44:02;3;3;
44350;PMS5003;62766;62.622;17.912;2022-10-31T02:46:38;3;3;
44350;PMS5003;62766;62.622;17.912;2022-10-31T02:49:15;2;2;
44350;PMS5003;62766;62.622;17.912;2022-10-31T02:51:55;2;2;
44350;PMS5003;62766;62.622;17.912;2022-10-31T02:54:24;2;2;
44350;PMS5003;62766;62.622;17.912;2022-10-31T02:56:57;4;4;
44350;PMS5003;62766;62.622;17.912;2022-10-31T02:59:29;4;3;
44350;PMS5003;62766;62.622;17.912;2022-10-31T03:02:12;3;3;
44350;PMS5003;62766;62.622;17.912;2022-10-31T03:04:57;2;2;
44350;PMS5003;62766;62.622;17.912;2022-10-31T03:07:42;2;1;
44350;PMS5003;62766;62.622;17.912;2022-10-31T03:10:21;5;3;
44350;PMS5003;62766;62.622;17.912;2022-10-31T03:12:59;2;2;
44350;PMS5003;62766;62.622;17.912;2022-10-31T03:15:36;4;3;
44350;PMS5003;62766;62.622;17.912;2022-10-31T03:18:08;3;3;
44350;PMS5003;62766;62.622;17.912;2022-10-31T03:20:40;5;3;
44350;PMS5003;62766;62.622;17.912;2022-10-31T03:23:13;3;3;
44350;PMS5003;62766;62.622;17.912;2022-10-31T03:25:45;3;3;
44350;PMS5003;62766;62.622;17.912;2022-10-31T03:28:17;3;3;
44350;PMS5003;62766;62.622;17.912;2022-10-31T03:30:50;4;4;
44350;PMS5003;62766;62.622;17.912;2022-10-31T03:33:23;4;4;
44350;PMS5003;62766;62.622;17.912;2022-10-31T03:35:57;4;4;
44350;PMS5003;62766;62.622;17.912;2022-10-31T03:38:30;4;4;
44350;PMS5003;62766;62.622;17.912;2022-10-31T03:41:03;4;2;
44350;PMS5003;62766;62.622;17.912;2022-10-31T03:43:37;5;3;
44350;PMS5003;62766;62.622;17.912;2022-10-31T03:46:11;3;3;
44350;PMS5003;62766;62.622;17.912;2022-10-31T03:48:39;6;4;
44350;PMS5003;62766;62.622;17.912;2022-10-31T03:51:10;6;4;
44350;PMS5003;62766;62.622;17.912;2022-10-31T03:53:50;5;5;
44350;PMS5003;62766;62.622;17.912;2022-10-31T03:56:25;3;3;
44350;PMS5003;62766;62.622;17.912;2022-10-31T03:59:00;2;2;
44350;PMS5003;62766;62.622;17.912;2022-10-31T04:01:34;6;4;
44350;PMS5003;62766;62.622;17.912;2022-10-31T04:04:09;6;5;
44350;PMS5003;62766;62.622;17.912;2022-10-31T04:06:39;4;4;
44350;PMS5003;62766;62.622;17.912;2022-10-31T04:09:11;4;3;
44350;PMS5003;62766;62.622;17.912;2022-10-31T04:11:43;5;5;
44350;PMS5003;62766;62.622;17.912;2022-10-31T04:14:16;7;6;
44350;PMS5003;62766;62.622;17.912;2022-10-31T04:16:45;12;12;
44350;PMS5003;62766;62.622;17.912;2022-10-31T04:19:14;4;4;
44350;PMS5003;62766;62.622;17.912;2022-10-31T04:21:42;4;4;
44350;PMS5003;62766;62.622;17.912;2022-10-31T04:24:11;6;4;
44350;PMS5003;62766;62.622;17.912;2022-10-31T04:26:39;6;6;
44350;PMS5003;62766;62.622;17.912;2022-10-31T04:29:08;8;8;
44350;PMS5003;62766;62.622;17.912;2022-10-31T04:31:37;8;7;
44350;PMS5003;62766;62.622;17.912;2022-10-31T04:34:05;6;6;
44350;PMS5003;62766;62.622;17.912;2022-10-31T04:36:33;6;6;
44350;PMS5003;62766;62.622;17.912;2022-10-31T04:39:03;3;3;
44350;PMS5003;62766;62.622;17.912;2022-10-31T04:41:32;4;4;
44350;PMS5003;62766;62.622;17.912;2022-10-31T04:44:00;5;5;
44350;PMS5003;62766;62.622;17.912;2022-10-31T04:46:29;5;5;
44350;PMS5003;62766;62.622;17.912;2022-10-31T04:48:57;4;4;
44350;PMS5003;62766;62.622;17.912;2022-10-31T04:51:26;8;7;
44350;PMS5003;62766;62.622;17.912;2022-10-31T04:53:54;5;4;
44350;PMS5003;62766;62.622;17.912;2022-10-31T04:56:23;5;5;
44350;PMS5003;62766;62.622;17.912;2022-10-31T04:58:51;4;4;
44350;PMS5003;62766;62.622;17.912;2022-10-31T05:03:21;5;5;
44350;PMS5003;62766;62.622;17.912;2022-10-31T05:05:50;8;4;
44350;PMS5003;62766;62.622;17.912;2022-10-31T05:08:19;7;6;
44350;PMS5003;62766;62.622;17.912;2022-10-31T05:10:49;6;5;
44350;PMS5003;62766;62.622;17.912;2022-10-31T05:13:17;3;3;
44350;PMS5003;62766;62.622;17.912;2022-10-31T05:15:46;4;4;
44350;PMS5003;62766;62.622;17.912;2022-10-31T05:18:14;4;4;
44350;PMS5003;62766;62.622;17.912;2022-10-31T05:20:43;4;4;
44350;PMS5003;62766;62.622;17.912;2022-10-31T05:23:11;4;4;
44350;PMS5003;62766;62.622;17.912;2022-10-31T05:25:40;2;2;
44350;PMS5003;62766;62.622;17.912;2022-10-31T05:28:08;8;8;
44350;PMS5003;62766;62.622;17.912;2022-10-31T05:30:36;4;4;
44350;PMS5003;62766;62.622;17.912;2022-10-31T05:33:05;3;3;
44350;PMS5003;62766;62.622;17.912;2022-10-31T05:35:33;5;5;
44350;PMS5003;62766;62.622;17.912;2022-10-31T05:38:02;9;7;
44350;PMS5003;62766;62.622;17.912;2022-10-31T05:40:31;9;6;
44350;PMS5003;62766;62.622;17.912;2022-10-31T05:42:59;5;5;
44350;PMS5003;62766;62.622;17.912;2022-10-31T05:45:28;6;5;
44350;PMS5003;62766;62.622;17.912;2022-10-31T05:47:57;5;5;
44350;PMS5003;62766;62.622;17.912;2022-10-31T05:50:28;10;9;
44350;PMS5003;62766;62.622;17.912;2022-10-31T05:53:00;5;3;
44350;PMS5003;62766;62.622;17.912;2022-10-31T05:55:31;3;3;
44350;PMS5003;62766;62.622;17.912;2022-10-31T05:58:01;4;2;
44350;PMS5003;62766;62.622;17.912;2022-10-31T06:00:29;5;4;
44350;PMS5003;62766;62.622;17.912;2022-10-31T06:02:58;4;4;
44350;PMS5003;62766;62.622;17.912;2022-10-31T06:05:28;6;4;
44350;PMS5003;62766;62.622;17.912;2022-10-31T06:07:58;6;6;
44350;PMS5003;62766;62.622;17.912;2022-10-31T06:10:28;5;5;
44350;PMS5003;62766;62.622;17.912;2022-10-31T06:12:56;7;6;
44350;PMS5003;62766;62.622;17.912;2022-10-31T06:15:25;8;4;
44350;PMS5003;62766;62.622;17.912;2022-10-31T06:17:58;5;5;
44350;PMS5003;62766;62.622;17.912;2022-10-31T06:20:28;7;5;
44350;PMS5003;62766;62.622;17.912;2022-10-31T06:22:57;4;4;
44350;PMS5003;62766;62.622;17.912;2022-10-31T06:25:25;8;5;
44350;PMS5003;62766;62.622;17.912;2022-10-31T06:27:54;8;6;
44350;PMS5003;62766;62.622;17.912;2022-10-31T06:30:24;6;6;
44350;PMS5003;62766;62.622;17.912;2022-10-31T06:32:53;11;11;
44350;PMS5003;62766;62.622;17.912;2022-10-31T06:35:21;21;18;
44350;PMS5003;62766;62.622;17.912;2022-10-31T06:37:51;34;30;
44350;PMS5003;62766;62.622;17.912;2022-10-31T06:40:20;36;25;
44350;PMS5003;62766;62.622;17.912;2022-10-31T06:42:56;11;9;
44350;PMS5003;62766;62.622;17.912;2022-10-31T06:45:25;4;4;
44350;PMS5003;62766;62.622;17.912;2022-10-31T06:47:54;4;4;
44350;PMS5003;62766;62.622;17.912;2022-10-31T06:50:24;27;26;
44350;PMS5003;62766;62.622;17.912;2022-10-31T06:52:54;96;86;
44350;PMS5003;62766;62.622;17.912;2022-10-31T06:55:25;63;55;
44350;PMS5003;62766;62.622;17.912;2022-10-31T06:57:54;54;50;
44350;PMS5003;62766;62.622;17.912;2022-10-31T07:00:23;37;33;
44350;PMS5003;62766;62.622;17.912;2022-10-31T07:02:52;26;25;
44350;PMS5003;62766;62.622;17.912;2022-10-31T07:05:23;27;25;
44350;PMS5003;62766;62.622;17.912;2022-10-31T07:07:52;28;25;
44350;PMS5003;62766;62.622;17.912;2022-10-31T07:10:23;27;23;
44350;PMS5003;62766;62.622;17.912;2022-10-31T07:12:53;21;21;
44350;PMS5003;62766;62.622;17.912;2022-10-31T07:15:23;16;14;
44350;PMS5003;62766;62.622;17.912;2022-10-31T07:17:52;17;16;
44350;PMS5003;62766;62.622;17.912;2022-10-31T07:20:22;15;11;
44350;PMS5003;62766;62.622;17.912;2022-10-31T07:22:51;12;10;
44350;PMS5003;62766;62.622;17.912;2022-10-31T07:25:20;11;9;
44350;PMS5003;62766;62.622;17.912;2022-10-31T07:27:50;8;7;
44350;PMS5003;62766;62.622;17.912;2022-10-31T07:30:18;3;3;
44350;PMS5003;62766;62.622;17.912;2022-10-31T07:32:47;7;7;
44350;PMS5003;62766;62.622;17.912;2022-10-31T07:35:17;12;9;
44350;PMS5003;62766;62.622;17.912;2022-10-31T07:37:47;9;7;
44350;PMS5003;62766;62.622;17.912;2022-10-31T07:40:18;7;5;
44350;PMS5003;62766;62.622;17.912;2022-10-31T07:42:49;5;4;
44350;PMS5003;62766;62.622;17.912;2022-10-31T07:45:20;6;5;
44350;PMS5003;62766;62.622;17.912;2022-10-31T07:47:49;12;12;
44350;PMS5003;62766;62.622;17.912;2022-10-31T07:50:22;23;22;
44350;PMS5003;62766;62.622;17.912;2022-10-31T07:52:59;13;11;
44350;PMS5003;62766;62.622;17.912;2022-10-31T07:55:29;11;9;
44350;PMS5003;62766;62.622;17.912;2022-10-31T07:57:58;9;6;
44350;PMS5003;62766;62.622;17.912;2022-10-31T08:00:28;8;6;
44350;PMS5003;62766;62.622;17.912;2022-10-31T08:02:58;7;7;
44350;PMS5003;62766;62.622;17.912;2022-10-31T08:05:28;8;8;
44350;PMS5003;62766;62.622;17.912;2022-10-31T08:07:56;15;12;
44350;PMS5003;62766;62.622;17.912;2022-10-31T08:10:25;23;18;
44350;PMS5003;62766;62.622;17.912;2022-10-31T08:12:56;24;21;
44350;PMS5003;62766;62.622;17.912;2022-10-31T08:15:25;23;22;
44350;PMS5003;62766;62.622;17.912;2022-10-31T08:17:54;11;10;
44350;PMS5003;62766;62.622;17.912;2022-10-31T08:20:23;9;9;
44350;PMS5003;62766;62.622;17.912;2022-10-31T08:22:52;15;15;
44350;PMS5003;62766;62.622;17.912;2022-10-31T08:25:23;8;8;
44350;PMS5003;62766;62.622;17.912;2022-10-31T08:27:52;12;10;
44350;PMS5003;62766;62.622;17.912;2022-10-31T08:30:23;11;10;
44350;PMS5003;62766;62.622;17.912;2022-10-31T08:33:00;9;9;
44350;PMS5003;62766;62.622;17.912;2022-10-31T08:35:29;8;8;
44350;PMS5003;62766;62.622;17.912;2022-10-31T08:37:59;12;12;
44350;PMS5003;62766;62.622;17.912;2022-10-31T08:40:28;22;16;
44350;PMS5003;62766;62.622;17.912;2022-10-31T08:43:00;29;26;
44350;PMS5003;62766;62.622;17.912;2022-10-31T08:45:31;28;25;
44350;PMS5003;62766;62.622;17.912;2022-10-31T08:48:02;26;24;
44350;PMS5003;62766;62.622;17.912;2022-10-31T08:50:34;28;26;
44350;PMS5003;62766;62.622;17.912;2022-10-31T08:53:04;18;16;
44350;PMS5003;62766;62.622;17.912;2022-10-31T08:55:34;6;6;
44350;PMS5003;62766;62.622;17.912;2022-10-31T08:58:04;4;2;
44350;PMS5003;62766;62.622;17.912;2022-10-31T09:00:34;2;2;
44350;PMS5003;62766;62.622;17.912;2022-10-31T09:03:04;4;4;
44350;PMS5003;62766;62.622;17.912;2022-10-31T09:05:34;4;2;
44350;PMS5003;62766;62.622;17.912;2022-10-31T09:08:03;2;2;
44350;PMS5003;62766;62.622;17.912;2022-10-31T09:10:34;3;3;
44350;PMS5003;62766;62.622;17.912;2022-10-31T09:13:09;4;2;
44350;PMS5003;62766;62.622;17.912;2022-10-31T09:15:41;3;3;
44350;PMS5003;62766;62.622;17.912;2022-10-31T09:18:11;1;1;
44350;PMS5003;62766;62.622;17.912;2022-10-31T09:20:41;4;2;
44350;PMS5003;62766;62.622;17.912;2022-10-31T09:23:11;2;2;
44350;PMS5003;62766;62.622;17.912;2022-10-31T09:25:41;5;2;
44350;PMS5003;62766;62.622;17.912;2022-10-31T09:28:12;4;3;
44350;PMS5003;62766;62.622;17.912;2022-10-31T09:30:45;4;3;
44350;PMS5003;62766;62.622;17.912;2022-10-31T09:33:15;3;3;
44350;PMS5003;62766;62.622;17.912;2022-10-31T09:35:44;2;2;
44350;PMS5003;62766;62.622;17.912;2022-10-31T09:38:13;2;2;
44350;PMS5003;62766;62.622;17.912;2022-10-31T09:40:43;2;2;
44350;PMS5003;62766;62.622;17.912;2022-10-31T09:43:15;2;2;
44350;PMS5003;62766;62.622;17.912;2022-10-31T09:45:56;4;2;
44350;PMS5003;62766;62.622;17.912;2022-10-31T09:48:37;2;2;
44350;PMS5003;62766;62.622;17.912;2022-10-31T09:51:17;2;2;
44350;PMS5003;62766;62.622;17.912;2022-10-31T09:53:49;2;2;
44350;PMS5003;62766;62.622;17.912;2022-10-31T09:56:21;2;2;
44350;PMS5003;62766;62.622;17.912;2022-10-31T09:58:54;3;3;
44350;PMS5003;62766;62.622;17.912;2022-10-31T10:01:30;2;2;
44350;PMS5003;62766;62.622;17.912;2022-10-31T10:04:05;2;1;
44350;PMS5003;62766;62.622;17.912;2022-10-31T10:06:49;1;1;
44350;PMS5003;62766;62.622;17.912;2022-10-31T10:09:21;2;2;
44350;PMS5003;62766;62.622;17.912;2022-10-31T10:11:57;4;3;
44350;PMS5003;62766;62.622;17.912;2022-10-31T10:14:36;3;2;
44350;PMS5003;62766;62.622;17.912;2022-10-31T10:17:18;1;1;
44350;PMS5003;62766;62.622;17.912;2022-10-31T10:20:01;3;3;
44350;PMS5003;62766;62.622;17.912;2022-10-31T10:22:47;2;2;
44350;PMS5003;62766;62.622;17.912;2022-10-31T10:25:21;2;2;
44350;PMS5003;62766;62.622;17.912;2022-10-31T10:27:56;4;3;
44350;PMS5003;62766;62.622;17.912;2022-10-31T10:30:34;3;3;
44350;PMS5003;62766;62.622;17.912;2022-10-31T10:33:09;3;3;
44350;PMS5003;62766;62.622;17.912;2022-10-31T10:35:42;2;2;
44350;PMS5003;62766;62.622;17.912;2022-10-31T10:38:16;2;2;
44350;PMS5003;62766;62.622;17.912;2022-10-31T10:40:50;1;1;
44350;PMS5003;62766;62.622;17.912;2022-10-31T10:43:23;2;2;
44350;PMS5003;62766;62.622;17.912;2022-10-31T10:48:45;4;3;
44350;PMS5003;62766;62.622;17.912;2022-10-31T10:51:23;5;3;
44350;PMS5003;62766;62.622;17.912;2022-10-31T10:54:02;3;3;
44350;PMS5003;62766;62.622;17.912;2022-10-31T10:56:44;3;2;
44350;PMS5003;62766;62.622;17.912;2022-10-31T10:59:22;3;3;
44350;PMS5003;62766;62.622;17.912;2022-10-31T11:03:24;2;2;
44350;PMS5003;62766;62.622;17.912;2022-10-31T11:05:52;3;3;
44350;PMS5003;62766;62.622;17.912;2022-10-31T11:08:23;3;3;
44350;PMS5003;62766;62.622;17.912;2022-10-31T11:10:56;3;3;
44350;PMS5003;62766;62.622;17.912;2022-10-31T11:13:28;2;2;
44350;PMS5003;62766;62.622;17.912;2022-10-31T11:15:59;2;2;
44350;PMS5003;62766;62.622;17.912;2022-10-31T11:18:37;3;3;
44350;PMS5003;62766;62.622;17.912;2022-10-31T11:21:19;4;3;
44350;PMS5003;62766;62.622;17.912;2022-10-31T11:23:48;2;2;
44350;PMS5003;62766;62.622;17.912;2022-10-31T11:26:18;2;2;
44350;PMS5003;62766;62.622;17.912;2022-10-31T11:28:55;2;2;
44350;PMS5003;62766;62.622;17.912;2022-10-31T11:31:25;2;2;
44350;PMS5003;62766;62.622;17.912;2022-10-31T11:33:57;3;3;
44350;PMS5003;62766;62.622;17.912;2022-10-31T11:36:28;2;1;
44350;PMS5003;62766;62.622;17.912;2022-10-31T11:38:59;2;2;
44350;PMS5003;62766;62.622;17.912;2022-10-31T11:41:31;2;1;
44350;PMS5003;62766;62.622;17.912;2022-10-31T11:44:01;2;2;
44350;PMS5003;62766;62.622;17.912;2022-10-31T11:46:33;2;2;
44350;PMS5003;62766;62.622;17.912;2022-10-31T11:49:05;3;2;
44350;PMS5003;62766;62.622;17.912;2022-10-31T11:51:46;1;1;
44350;PMS5003;62766;62.622;17.912;2022-10-31T11:54:19;4;2;
44350;PMS5003;62766;62.622;17.912;2022-10-31T11:56:52;2;2;
44350;PMS5003;62766;62.622;17.912;2022-10-31T11:59:23;1;1;
44350;PMS5003;62766;62.622;17.912;2022-10-31T12:01:54;3;3;
44350;PMS5003;62766;62.622;17.912;2022-10-31T12:04:27;5;4;
44350;PMS5003;62766;62.622;17.912;2022-10-31T12:07:01;1;1;
44350;PMS5003;62766;62.622;17.912;2022-10-31T12:09:29;3;3;
44350;PMS5003;62766;62.622;17.912;2022-10-31T12:12:12;2;2;
44350;PMS5003;62766;62.622;17.912;2022-10-31T12:14:54;2;2;
44350;PMS5003;62766;62.622;17.912;2022-10-31T12:17:35;2;2;
44350;PMS5003;62766;62.622;17.912;2022-10-31T12:20:12;1;1;
44350;PMS5003;62766;62.622;17.912;2022-10-31T12:22:52;3;3;
44350;PMS5003;62766;62.622;17.912;2022-10-31T12:25:34;2;2;
44350;PMS5003;62766;62.622;17.912;2022-10-31T12:28:19;3;2;
44350;PMS5003;62766;62.622;17.912;2022-10-31T12:31:07;1;1;
44350;PMS5003;62766;62.622;17.912;2022-10-31T12:33:52;2;2;
44350;PMS5003;62766;62.622;17.912;2022-10-31T12:36:31;0;0;
44350;PMS5003;62766;62.622;17.912;2022-10-31T12:39:15;3;3;
44350;PMS5003;62766;62.622;17.912;2022-10-31T12:41:53;2;2;
44350;PMS5003;62766;62.622;17.912;2022-10-31T12:44:33;4;3;
44350;PMS5003;62766;62.622;17.912;2022-10-31T12:47:22;2;2;
44350;PMS5003;62766;62.622;17.912;2022-10-31T12:50:11;1;1;
44350;PMS5003;62766;62.622;17.912;2022-10-31T12:52:50;4;3;
44350;PMS5003;62766;62.622;17.912;2022-10-31T12:55:32;2;2;
44350;PMS5003;62766;62.622;17.912;2022-10-31T12:58:10;2;2;
44350;PMS5003;62766;62.622;17.912;2022-10-31T13:00:47;3;3;
44350;PMS5003;62766;62.622;17.912;2022-10-31T13:03:23;2;2;
44350;PMS5003;62766;62.622;17.912;2022-10-31T13:05:58;1;1;
44350;PMS5003;62766;62.622;17.912;2022-10-31T13:08:33;2;2;
44350;PMS5003;62766;62.622;17.912;2022-10-31T13:11:08;2;2;
44350;PMS5003;62766;62.622;17.912;2022-10-31T13:13:40;4;2;
44350;PMS5003;62766;62.622;17.912;2022-10-31T13:16:14;3;2;
44350;PMS5003;62766;62.622;17.912;2022-10-31T13:18:48;3;3;
44350;PMS5003;62766;62.622;17.912;2022-10-31T13:21:22;3;2;
44350;PMS5003;62766;62.622;17.912;2022-10-31T13:23:53;3;3;
44350;PMS5003;62766;62.622;17.912;2022-10-31T13:26:31;2;2;
44350;PMS5003;62766;62.622;17.912;2022-10-31T13:29:06;1;1;
44350;PMS5003;62766;62.622;17.912;2022-10-31T13:31:43;3;3;
44350;PMS5003;62766;62.622;17.912;2022-10-31T13:34:18;0;0;
44350;PMS5003;62766;62.622;17.912;2022-10-31T13:36:54;2;2;
44350;PMS5003;62766;62.622;17.912;2022-10-31T13:39:31;2;2;
44350;PMS5003;62766;62.622;17.912;2022-10-31T13:42:13;3;3;
44350;PMS5003;62766;62.622;17.912;2022-10-31T13:44:48;3;3;
44350;PMS5003;62766;62.622;17.912;2022-10-31T13:47:24;1;1;
44350;PMS5003;62766;62.622;17.912;2022-10-31T13:50:03;2;2;
44350;PMS5003;62766;62.622;17.912;2022-10-31T13:52:33;3;3;
44350;PMS5003;62766;62.622;17.912;2022-10-31T13:55:02;2;2;
44350;PMS5003;62766;62.622;17.912;2022-10-31T13:57:31;3;3;
44350;PMS5003;62766;62.622;17.912;2022-10-31T14:00:03;2;2;
44350;PMS5003;62766;62.622;17.912;2022-10-31T14:02:34;1;1;
44350;PMS5003;62766;62.622;17.912;2022-10-31T14:05:05;5;4;
44350;PMS5003;62766;62.622;17.912;2022-10-31T14:07:49;3;3;
44350;PMS5003;62766;62.622;17.912;2022-10-31T14:10:22;5;5;
44350;PMS5003;62766;62.622;17.912;2022-10-31T14:12:53;2;2;
44350;PMS5003;62766;62.622;17.912;2022-10-31T14:15:31;5;3;
44350;PMS5003;62766;62.622;17.912;2022-10-31T14:18:01;3;3;
44350;PMS5003;62766;62.622;17.912;2022-10-31T14:20:32;3;3;
44350;PMS5003;62766;62.622;17.912;2022-10-31T14:23:12;3;3;
44350;PMS5003;62766;62.622;17.912;2022-10-31T14:26:29;4;2;
44350;PMS5003;62766;62.622;17.912;2022-10-31T14:29:00;3;3;
44350;PMS5003;62766;62.622;17.912;2022-10-31T14:31:53;3;3;
44350;PMS5003;62766;62.622;17.912;2022-10-31T14:34:40;2;2;
44350;PMS5003;62766;62.622;17.912;2022-10-31T14:37:39;3;3;
44350;PMS5003;62766;62.622;17.912;2022-10-31T14:40:26;4;4;
44350;PMS5003;62766;62.622;17.912;2022-10-31T14:43:10;3;3;
44350;PMS5003;62766;62.622;17.912;2022-10-31T14:45:54;2;2;
44350;PMS5003;62766;62.622;17.912;2022-10-31T14:48:35;6;4;
44350;PMS5003;62766;62.622;17.912;2022-10-31T14:51:47;3;3;
44350;PMS5003;62766;62.622;17.912;2022-10-31T14:54:19;2;2;
44350;PMS5003;62766;62.622;17.912;2022-10-31T14:56:54;4;4;
44350;PMS5003;62766;62.622;17.912;2022-10-31T14:59:28;6;5;
44350;PMS5003;62766;62.622;17.912;2022-10-31T15:02:01;4;3;
44350;PMS5003;62766;62.622;17.912;2022-10-31T15:04:39;2;2;
44350;PMS5003;62766;62.622;17.912;2022-10-31T15:07:12;3;3;
44350;PMS5003;62766;62.622;17.912;2022-10-31T15:09:44;5;3;
44350;PMS5003;62766;62.622;17.912;2022-10-31T15:12:24;3;3;
44350;PMS5003;62766;62.622;17.912;2022-10-31T15:14:55;3;3;
44350;PMS5003;62766;62.622;17.912;2022-10-31T15:17:25;3;3;
44350;PMS5003;62766;62.622;17.912;2022-10-31T15:19:53;3;3;
44350;PMS5003;62766;62.622;17.912;2022-10-31T15:22:23;3;2;
44350;PMS5003;62766;62.622;17.912;2022-10-31T15:24:54;3;3;
44350;PMS5003;62766;62.622;17.912;2022-10-31T15:27:23;4;3;
44350;PMS5003;62766;62.622;17.912;2022-10-31T15:29:53;4;4;
44350;PMS5003;62766;62.622;17.912;2022-10-31T15:32:23;4;4;
44350;PMS5003;62766;62.622;17.912;2022-10-31T15:34:54;3;3;
44350;PMS5003;62766;62.622;17.912;2022-10-31T15:37:24;3;3;
44350;PMS5003;62766;62.622;17.912;2022-10-31T15:39:53;3;3;
44350;PMS5003;62766;62.622;17.912;2022-10-31T15:42:23;2;2;
44350;PMS5003;62766;62.622;17.912;2022-10-31T15:45:00;3;3;
44350;PMS5003;62766;62.622;17.912;2022-10-31T15:47:32;4;4;
44350;PMS5003;62766;62.622;17.912;2022-10-31T15:50:02;4;4;
44350;PMS5003;62766;62.622;17.912;2022-10-31T15:52:37;4;2;
44350;PMS5003;62766;62.622;17.912;2022-10-31T15:55:14;7;7;
44350;PMS5003;62766;62.622;17.912;2022-10-31T15:57:48;12;12;
44350;PMS5003;62766;62.622;17.912;2022-10-31T16:00:21;16;15;
44350;PMS5003;62766;62.622;17.912;2022-10-31T16:03:01;35;33;
44350;PMS5003;62766;62.622;17.912;2022-10-31T16:05:34;7;5;
44350;PMS5003;62766;62.622;17.912;2022-10-31T16:08:04;7;6;
44350;PMS5003;62766;62.622;17.912;2022-10-31T16:10:52;7;5;
44350;PMS5003;62766;62.622;17.912;2022-10-31T16:13:23;1;1;
44350;PMS5003;62766;62.622;17.912;2022-10-31T16:15:57;1;1;
44350;PMS5003;62766;62.622;17.912;2022-10-31T16:18:29;1;1;
44350;PMS5003;62766;62.622;17.912;2022-10-31T16:21:04;3;3;
44350;PMS5003;62766;62.622;17.912;2022-10-31T16:23:34;4;4;
44350;PMS5003;62766;62.622;17.912;2022-10-31T16:26:06;14;14;
44350;PMS5003;62766;62.622;17.912;2022-10-31T16:28:37;5;5;
44350;PMS5003;62766;62.622;17.912;2022-10-31T16:31:12;3;3;
44350;PMS5003;62766;62.622;17.912;2022-10-31T16:33:42;1;1;
44350;PMS5003;62766;62.622;17.912;2022-10-31T16:36:29;1;1;
44350;PMS5003;62766;62.622;17.912;2022-10-31T16:39:00;4;2;
44350;PMS5003;62766;62.622;17.912;2022-10-31T16:41:28;0;0;
44350;PMS5003;62766;62.622;17.912;2022-10-31T16:43:56;3;3;
44350;PMS5003;62766;62.622;17.912;2022-10-31T16:46:26;6;4;
44350;PMS5003;62766;62.622;17.912;2022-10-31T16:48:55;18;17;
44350;PMS5003;62766;62.622;17.912;2022-10-31T16:51:24;39;36;
44350;PMS5003;62766;62.622;17.912;2022-10-31T16:53:52;46;43;
44350;PMS5003;62766;62.622;17.912;2022-10-31T16:56:22;31;31;
44350;PMS5003;62766;62.622;17.912;2022-10-31T16:58:56;24;21;
44350;PMS5003;62766;62.622;17.912;2022-10-31T17:03:18;6;6;
44350;PMS5003;62766;62.622;17.912;2022-10-31T17:05:47;2;2;
44350;PMS5003;62766;62.622;17.912;2022-10-31T17:08:15;4;2;
44350;PMS5003;62766;62.622;17.912;2022-10-31T17:10:43;1;1;
44350;PMS5003;62766;62.622;17.912;2022-10-31T17:13:16;3;3;
44350;PMS5003;62766;62.622;17.912;2022-10-31T17:15:47;1;1;
44350;PMS5003;62766;62.622;17.912;2022-10-31T17:18:19;2;2;